sensor_id;sensor_type;location;lat;lon;timestamp;P1;durP1;ratioP1;P2;durP2;ratioP2
42514;SDS011;28144;49.920;18.730;2022-12-20T00:01:30;26.63;;;11.73;;
42514;SDS011;28144;49.920;18.730;2022-12-20T00:03:57;27.60;;;12.07;;
42514;SDS011;28144;49.920;18.730;2022-12-20T00:06:24;34.57;;;11.87;;
42514;SDS011;28144;49.920;18.730;2022-12-20T00:08:54;27.63;;;11.85;;
42514;SDS011;28144;49.920;18.730;2022-12-20T00:11:21;28.67;;;11.60;;
42514;SDS011;28144;49.920;18.730;2022-12-20T00:13:47;24.73;;;12.63;;
42514;SDS011;28144;49.920;18.730;2022-12-20T00:16:13;28.27;;;12.17;;
42514;SDS011;28144;49.920;18.730;2022-12-20T00:18:41;24.43;;;10.97;;
42514;SDS011;28144;49.920;18.730;2022-12-20T00:21:08;23.00;;;10.87;;
42514;SDS011;28144;49.920;18.730;2022-12-20T00:23:35;24.83;;;12.10;;
42514;SDS011;28144;49.920;18.730;2022-12-20T00:26:02;32.10;;;13.40;;
42514;SDS011;28144;49.920;18.730;2022-12-20T00:28:29;25.50;;;10.70;;
42514;SDS011;28144;49.920;18.730;2022-12-20T00:30:55;29.67;;;11.23;;
42514;SDS011;28144;49.920;18.730;2022-12-20T00:33:21;24.07;;;10.97;;
42514;SDS011;28144;49.920;18.730;2022-12-20T00:35:46;23.90;;;11.03;;
42514;SDS011;28144;49.920;18.730;2022-12-20T00:38:12;28.77;;;12.23;;
42514;SDS011;28144;49.920;18.730;2022-12-20T00:40:38;25.10;;;11.40;;
42514;SDS011;28144;49.920;18.730;2022-12-20T00:43:04;24.98;;;11.40;;
42514;SDS011;28144;49.920;18.730;2022-12-20T00:45:30;23.97;;;11.03;;
42514;SDS011;28144;49.920;18.730;2022-12-20T00:47:56;27.50;;;11.10;;
42514;SDS011;28144;49.920;18.730;2022-12-20T00:50:21;22.93;;;11.53;;
42514;SDS011;28144;49.920;18.730;2022-12-20T00:52:47;27.00;;;12.13;;
42514;SDS011;28144;49.920;18.730;2022-12-20T00:55:13;27.40;;;12.23;;
42514;SDS011;28144;49.920;18.730;2022-12-20T00:57:39;24.03;;;11.47;;
42514;SDS011;28144;49.920;18.730;2022-12-20T01:00:04;29.57;;;12.73;;
42514;SDS011;28144;49.920;18.730;2022-12-20T01:02:31;27.38;;;11.75;;
42514;SDS011;28144;49.920;18.730;2022-12-20T01:04:57;22.10;;;10.70;;
42514;SDS011;28144;49.920;18.730;2022-12-20T01:07:23;27.17;;;12.17;;
42514;SDS011;28144;49.920;18.730;2022-12-20T01:09:49;32.17;;;12.03;;
42514;SDS011;28144;49.920;18.730;2022-12-20T01:12:15;22.63;;;11.35;;
42514;SDS011;28144;49.920;18.730;2022-12-20T01:14:41;25.50;;;11.17;;
42514;SDS011;28144;49.920;18.730;2022-12-20T01:17:07;27.13;;;11.67;;
42514;SDS011;28144;49.920;18.730;2022-12-20T01:19:32;27.00;;;11.77;;
42514;SDS011;28144;49.920;18.730;2022-12-20T01:21:58;25.70;;;11.80;;
42514;SDS011;28144;49.920;18.730;2022-12-20T01:24:24;30.23;;;11.53;;
42514;SDS011;28144;49.920;18.730;2022-12-20T01:26:50;33.03;;;12.17;;
42514;SDS011;28144;49.920;18.730;2022-12-20T01:29:15;28.23;;;11.33;;
42514;SDS011;28144;49.920;18.730;2022-12-20T01:31:42;25.98;;;12.15;;
42514;SDS011;28144;49.920;18.730;2022-12-20T01:34:08;28.10;;;12.30;;
42514;SDS011;28144;49.920;18.730;2022-12-20T01:36:35;23.75;;;11.00;;
42514;SDS011;28144;49.920;18.730;2022-12-20T01:39:08;26.97;;;11.97;;
42514;SDS011;28144;49.920;18.730;2022-12-20T01:41:36;27.13;;;11.40;;
42514;SDS011;28144;49.920;18.730;2022-12-20T01:44:03;25.77;;;11.85;;
42514;SDS011;28144;49.920;18.730;2022-12-20T01:46:42;28.43;;;12.30;;
42514;SDS011;28144;49.920;18.730;2022-12-20T01:49:09;29.25;;;13.02;;
42514;SDS011;28144;49.920;18.730;2022-12-20T01:51:42;27.03;;;11.77;;
42514;SDS011;28144;49.920;18.730;2022-12-20T01:54:10;26.50;;;12.73;;
42514;SDS011;28144;49.920;18.730;2022-12-20T01:56:37;22.37;;;11.53;;
42514;SDS011;28144;49.920;18.730;2022-12-20T01:59:04;26.73;;;11.20;;
42514;SDS011;28144;49.920;18.730;2022-12-20T02:01:30;27.85;;;12.35;;
42514;SDS011;28144;49.920;18.730;2022-12-20T02:03:56;23.57;;;11.60;;
42514;SDS011;28144;49.920;18.730;2022-12-20T02:06:23;23.87;;;11.87;;
42514;SDS011;28144;49.920;18.730;2022-12-20T02:08:50;24.50;;;11.30;;
42514;SDS011;28144;49.920;18.730;2022-12-20T02:11:30;29.33;;;11.77;;
42514;SDS011;28144;49.920;18.730;2022-12-20T02:17:12;26.80;;;12.20;;
42514;SDS011;28144;49.920;18.730;2022-12-20T02:28:25;25.10;;;11.40;;
42514;SDS011;28144;49.920;18.730;2022-12-20T02:30:55;24.37;;;10.20;;
42514;SDS011;28144;49.920;18.730;2022-12-20T02:33:22;23.23;;;10.35;;
42514;SDS011;28144;49.920;18.730;2022-12-20T02:35:49;26.70;;;11.27;;
42514;SDS011;28144;49.920;18.730;2022-12-20T02:38:29;24.43;;;10.80;;
42514;SDS011;28144;49.920;18.730;2022-12-20T02:41:13;23.07;;;11.27;;
42514;SDS011;28144;49.920;18.730;2022-12-20T02:43:44;27.53;;;11.83;;
42514;SDS011;28144;49.920;18.730;2022-12-20T02:48:57;26.17;;;11.90;;
42514;SDS011;28144;49.920;18.730;2022-12-20T02:51:25;28.70;;;12.87;;
42514;SDS011;28144;49.920;18.730;2022-12-20T02:53:53;27.70;;;12.23;;
42514;SDS011;28144;49.920;18.730;2022-12-20T02:56:26;25.37;;;11.67;;
42514;SDS011;28144;49.920;18.730;2022-12-20T02:59:19;26.43;;;11.40;;
42514;SDS011;28144;49.920;18.730;2022-12-20T03:01:50;28.27;;;12.13;;
42514;SDS011;28144;49.920;18.730;2022-12-20T03:04:17;25.00;;;11.77;;
42514;SDS011;28144;49.920;18.730;2022-12-20T03:06:59;28.97;;;13.07;;
42514;SDS011;28144;49.920;18.730;2022-12-20T03:09:27;31.63;;;12.03;;
42514;SDS011;28144;49.920;18.730;2022-12-20T03:11:54;25.57;;;12.00;;
42514;SDS011;28144;49.920;18.730;2022-12-20T03:14:20;30.08;;;13.02;;
42514;SDS011;28144;49.920;18.730;2022-12-20T03:16:46;23.97;;;10.73;;
42514;SDS011;28144;49.920;18.730;2022-12-20T03:19:12;25.93;;;11.73;;
42514;SDS011;28144;49.920;18.730;2022-12-20T03:21:37;26.30;;;11.53;;
42514;SDS011;28144;49.920;18.730;2022-12-20T03:24:03;24.87;;;10.50;;
42514;SDS011;28144;49.920;18.730;2022-12-20T03:26:29;27.83;;;11.63;;
42514;SDS011;28144;49.920;18.730;2022-12-20T03:28:55;24.73;;;12.13;;
42514;SDS011;28144;49.920;18.730;2022-12-20T03:31:20;26.17;;;12.03;;
42514;SDS011;28144;49.920;18.730;2022-12-20T03:33:47;28.58;;;12.25;;
42514;SDS011;28144;49.920;18.730;2022-12-20T03:36:13;29.63;;;12.90;;
42514;SDS011;28144;49.920;18.730;2022-12-20T03:38:39;30.03;;;11.63;;
42514;SDS011;28144;49.920;18.730;2022-12-20T03:41:04;30.97;;;12.33;;
42514;SDS011;28144;49.920;18.730;2022-12-20T03:43:30;30.03;;;13.80;;
42514;SDS011;28144;49.920;18.730;2022-12-20T03:45:56;32.97;;;14.07;;
42514;SDS011;28144;49.920;18.730;2022-12-20T03:48:22;28.73;;;12.65;;
42514;SDS011;28144;49.920;18.730;2022-12-20T03:50:48;33.30;;;12.43;;
42514;SDS011;28144;49.920;18.730;2022-12-20T03:53:14;28.30;;;14.00;;
42514;SDS011;28144;49.920;18.730;2022-12-20T03:55:40;27.63;;;11.18;;
42514;SDS011;28144;49.920;18.730;2022-12-20T03:58:06;28.63;;;12.57;;
42514;SDS011;28144;49.920;18.730;2022-12-20T04:00:31;23.97;;;11.60;;
42514;SDS011;28144;49.920;18.730;2022-12-20T04:02:57;28.87;;;11.83;;
42514;SDS011;28144;49.920;18.730;2022-12-20T04:05:23;27.63;;;12.33;;
42514;SDS011;28144;49.920;18.730;2022-12-20T04:07:49;31.13;;;13.40;;
42514;SDS011;28144;49.920;18.730;2022-12-20T04:10:14;26.10;;;12.43;;
42514;SDS011;28144;49.920;18.730;2022-12-20T04:12:40;29.43;;;12.33;;
42514;SDS011;28144;49.920;18.730;2022-12-20T04:15:06;27.37;;;12.10;;
42514;SDS011;28144;49.920;18.730;2022-12-20T04:17:32;30.33;;;12.98;;
42514;SDS011;28144;49.920;18.730;2022-12-20T04:19:58;30.90;;;12.17;;
42514;SDS011;28144;49.920;18.730;2022-12-20T04:22:46;26.80;;;13.00;;
42514;SDS011;28144;49.920;18.730;2022-12-20T04:25:12;29.07;;;12.50;;
42514;SDS011;28144;49.920;18.730;2022-12-20T04:27:38;27.52;;;12.38;;
42514;SDS011;28144;49.920;18.730;2022-12-20T04:30:04;25.97;;;11.17;;
42514;SDS011;28144;49.920;18.730;2022-12-20T04:32:30;25.02;;;12.25;;
42514;SDS011;28144;49.920;18.730;2022-12-20T04:34:56;24.37;;;12.17;;
42514;SDS011;28144;49.920;18.730;2022-12-20T04:37:22;24.70;;;12.43;;
42514;SDS011;28144;49.920;18.730;2022-12-20T04:39:47;31.23;;;13.87;;
42514;SDS011;28144;49.920;18.730;2022-12-20T04:42:13;32.10;;;13.37;;
42514;SDS011;28144;49.920;18.730;2022-12-20T04:44:39;30.57;;;14.20;;
42514;SDS011;28144;49.920;18.730;2022-12-20T04:47:05;31.27;;;13.77;;
42514;SDS011;28144;49.920;18.730;2022-12-20T04:49:30;31.83;;;13.87;;
42514;SDS011;28144;49.920;18.730;2022-12-20T04:51:56;29.87;;;12.80;;
42514;SDS011;28144;49.920;18.730;2022-12-20T04:54:42;31.30;;;13.90;;
42514;SDS011;28144;49.920;18.730;2022-12-20T04:57:07;34.80;;;12.87;;
42514;SDS011;28144;49.920;18.730;2022-12-20T04:59:34;35.08;;;14.68;;
42514;SDS011;28144;49.920;18.730;2022-12-20T05:02:00;23.63;;;11.23;;
42514;SDS011;28144;49.920;18.730;2022-12-20T05:04:26;30.63;;;13.93;;
42514;SDS011;28144;49.920;18.730;2022-12-20T05:06:52;36.73;;;14.70;;
42514;SDS011;28144;49.920;18.730;2022-12-20T05:09:17;35.43;;;15.07;;
42514;SDS011;28144;49.920;18.730;2022-12-20T05:11:43;32.20;;;14.60;;
42514;SDS011;28144;49.920;18.730;2022-12-20T05:14:09;38.67;;;13.87;;
42514;SDS011;28144;49.920;18.730;2022-12-20T05:16:34;36.73;;;15.30;;
42514;SDS011;28144;49.920;18.730;2022-12-20T05:19:01;32.08;;;14.75;;
42514;SDS011;28144;49.920;18.730;2022-12-20T05:21:29;31.27;;;14.80;;
42514;SDS011;28144;49.920;18.730;2022-12-20T05:24:13;41.40;;;16.83;;
42514;SDS011;28144;49.920;18.730;2022-12-20T05:27:15;36.80;;;16.97;;
42514;SDS011;28144;49.920;18.730;2022-12-20T05:29:40;39.60;;;16.03;;
42514;SDS011;28144;49.920;18.730;2022-12-20T05:32:06;38.43;;;17.43;;
42514;SDS011;28144;49.920;18.730;2022-12-20T05:34:32;37.53;;;17.23;;
42514;SDS011;28144;49.920;18.730;2022-12-20T05:36:57;42.67;;;19.10;;
42514;SDS011;28144;49.920;18.730;2022-12-20T05:39:23;43.23;;;17.50;;
42514;SDS011;28144;49.920;18.730;2022-12-20T05:41:49;40.30;;;17.40;;
42514;SDS011;28144;49.920;18.730;2022-12-20T05:44:14;41.00;;;17.73;;
42514;SDS011;28144;49.920;18.730;2022-12-20T05:49:07;40.60;;;16.67;;
42514;SDS011;28144;49.920;18.730;2022-12-20T05:51:33;39.27;;;18.33;;
42514;SDS011;28144;49.920;18.730;2022-12-20T05:53:58;43.13;;;16.53;;
42514;SDS011;28144;49.920;18.730;2022-12-20T05:56:24;45.13;;;19.27;;
42514;SDS011;28144;49.920;18.730;2022-12-20T05:58:50;46.58;;;19.73;;
42514;SDS011;28144;49.920;18.730;2022-12-20T06:01:16;49.63;;;19.37;;
42514;SDS011;28144;49.920;18.730;2022-12-20T06:03:42;48.80;;;20.40;;
42514;SDS011;28144;49.920;18.730;2022-12-20T06:06:08;39.93;;;17.63;;
42514;SDS011;28144;49.920;18.730;2022-12-20T06:08:33;47.50;;;18.93;;
42514;SDS011;28144;49.920;18.730;2022-12-20T06:10:59;42.17;;;18.50;;
42514;SDS011;28144;49.920;18.730;2022-12-20T06:13:27;42.60;;;18.70;;
42514;SDS011;28144;49.920;18.730;2022-12-20T06:15:53;39.77;;;15.50;;
42514;SDS011;28144;49.920;18.730;2022-12-20T06:18:18;41.20;;;17.67;;
42514;SDS011;28144;49.920;18.730;2022-12-20T06:20:48;46.73;;;20.43;;
42514;SDS011;28144;49.920;18.730;2022-12-20T06:23:17;42.20;;;20.23;;
42514;SDS011;28144;49.920;18.730;2022-12-20T06:25:45;45.20;;;19.70;;
42514;SDS011;28144;49.920;18.730;2022-12-20T06:28:10;47.40;;;20.35;;
42514;SDS011;28144;49.920;18.730;2022-12-20T06:30:36;46.30;;;18.57;;
42514;SDS011;28144;49.920;18.730;2022-12-20T06:33:02;48.23;;;19.60;;
42514;SDS011;28144;49.920;18.730;2022-12-20T06:35:29;42.28;;;19.13;;
42514;SDS011;28144;49.920;18.730;2022-12-20T06:37:55;46.22;;;19.95;;
42514;SDS011;28144;49.920;18.730;2022-12-20T06:40:21;47.38;;;18.00;;
42514;SDS011;28144;49.920;18.730;2022-12-20T06:42:47;48.23;;;18.87;;
42514;SDS011;28144;49.920;18.730;2022-12-20T06:45:15;46.43;;;19.27;;
42514;SDS011;28144;49.920;18.730;2022-12-20T06:47:40;37.90;;;15.67;;
42514;SDS011;28144;49.920;18.730;2022-12-20T06:50:06;42.40;;;17.97;;
42514;SDS011;28144;49.920;18.730;2022-12-20T06:52:33;42.33;;;18.07;;
42514;SDS011;28144;49.920;18.730;2022-12-20T06:54:59;45.40;;;19.85;;
42514;SDS011;28144;49.920;18.730;2022-12-20T06:57:24;47.27;;;18.67;;
42514;SDS011;28144;49.920;18.730;2022-12-20T06:59:50;42.37;;;19.27;;
42514;SDS011;28144;49.920;18.730;2022-12-20T07:02:16;43.77;;;19.03;;
42514;SDS011;28144;49.920;18.730;2022-12-20T07:04:42;45.77;;;20.03;;
42514;SDS011;28144;49.920;18.730;2022-12-20T07:07:07;46.70;;;19.23;;
42514;SDS011;28144;49.920;18.730;2022-12-20T07:09:33;48.20;;;20.27;;
42514;SDS011;28144;49.920;18.730;2022-12-20T07:11:59;35.10;;;16.50;;
42514;SDS011;28144;49.920;18.730;2022-12-20T07:14:25;41.50;;;17.53;;
42514;SDS011;28144;49.920;18.730;2022-12-20T07:16:51;45.83;;;18.93;;
42514;SDS011;28144;49.920;18.730;2022-12-20T07:19:17;44.50;;;19.03;;
42514;SDS011;28144;49.920;18.730;2022-12-20T07:21:42;41.33;;;16.97;;
42514;SDS011;28144;49.920;18.730;2022-12-20T07:24:08;43.17;;;19.90;;
42514;SDS011;28144;49.920;18.730;2022-12-20T07:26:34;50.03;;;20.33;;
42514;SDS011;28144;49.920;18.730;2022-12-20T07:29:00;46.27;;;19.03;;
42514;SDS011;28144;49.920;18.730;2022-12-20T07:31:26;42.73;;;19.57;;
42514;SDS011;28144;49.920;18.730;2022-12-20T07:33:51;49.37;;;21.90;;
42514;SDS011;28144;49.920;18.730;2022-12-20T07:36:17;49.37;;;21.47;;
42514;SDS011;28144;49.920;18.730;2022-12-20T07:38:43;38.70;;;18.10;;
42514;SDS011;28144;49.920;18.730;2022-12-20T07:41:09;42.27;;;19.57;;
42514;SDS011;28144;49.920;18.730;2022-12-20T07:43:37;50.47;;;21.27;;
42514;SDS011;28144;49.920;18.730;2022-12-20T07:46:03;51.67;;;22.50;;
42514;SDS011;28144;49.920;18.730;2022-12-20T07:48:29;54.03;;;22.85;;
42514;SDS011;28144;49.920;18.730;2022-12-20T07:51:00;57.07;;;22.80;;
42514;SDS011;28144;49.920;18.730;2022-12-20T07:53:28;52.37;;;21.47;;
42514;SDS011;28144;49.920;18.730;2022-12-20T07:55:56;47.77;;;20.27;;
42514;SDS011;28144;49.920;18.730;2022-12-20T07:58:22;46.22;;;19.48;;
42514;SDS011;28144;49.920;18.730;2022-12-20T08:00:48;50.10;;;21.40;;
42514;SDS011;28144;49.920;18.730;2022-12-20T08:03:22;45.17;;;19.33;;
42514;SDS011;28144;49.920;18.730;2022-12-20T08:05:52;44.97;;;20.27;;
42514;SDS011;28144;49.920;18.730;2022-12-20T08:08:20;42.47;;;19.23;;
42514;SDS011;28144;49.920;18.730;2022-12-20T08:10:46;50.43;;;21.40;;
42514;SDS011;28144;49.920;18.730;2022-12-20T08:13:13;50.42;;;21.60;;
42514;SDS011;28144;49.920;18.730;2022-12-20T08:15:38;50.73;;;20.63;;
42514;SDS011;28144;49.920;18.730;2022-12-20T08:18:04;50.37;;;22.53;;
42514;SDS011;28144;49.920;18.730;2022-12-20T08:20:30;47.80;;;17.60;;
42514;SDS011;28144;49.920;18.730;2022-12-20T08:22:56;53.40;;;22.10;;
42514;SDS011;28144;49.920;18.730;2022-12-20T08:25:22;50.63;;;21.87;;
42514;SDS011;28144;49.920;18.730;2022-12-20T08:27:49;48.70;;;21.58;;
42514;SDS011;28144;49.920;18.730;2022-12-20T08:30:14;43.50;;;20.53;;
42514;SDS011;28144;49.920;18.730;2022-12-20T08:32:40;48.93;;;21.43;;
42514;SDS011;28144;49.920;18.730;2022-12-20T08:35:06;51.57;;;22.73;;
42514;SDS011;28144;49.920;18.730;2022-12-20T08:37:33;49.70;;;22.33;;
42514;SDS011;28144;49.920;18.730;2022-12-20T08:40:05;45.13;;;20.80;;
42514;SDS011;28144;49.920;18.730;2022-12-20T08:42:32;49.67;;;21.57;;
42514;SDS011;28144;49.920;18.730;2022-12-20T08:44:57;46.83;;;20.70;;
42514;SDS011;28144;49.920;18.730;2022-12-20T08:47:23;49.27;;;20.93;;
42514;SDS011;28144;49.920;18.730;2022-12-20T08:49:49;49.23;;;21.47;;
42514;SDS011;28144;49.920;18.730;2022-12-20T08:52:15;51.80;;;21.33;;
42514;SDS011;28144;49.920;18.730;2022-12-20T08:54:40;47.47;;;20.60;;
42514;SDS011;28144;49.920;18.730;2022-12-20T08:57:07;46.43;;;19.07;;
42514;SDS011;28144;49.920;18.730;2022-12-20T09:02:04;50.03;;;22.27;;
42514;SDS011;28144;49.920;18.730;2022-12-20T09:04:34;47.20;;;19.20;;
42514;SDS011;28144;49.920;18.730;2022-12-20T09:06:59;43.47;;;20.20;;
42514;SDS011;28144;49.920;18.730;2022-12-20T09:09:25;49.67;;;21.37;;
42514;SDS011;28144;49.920;18.730;2022-12-20T09:11:51;48.23;;;21.57;;
42514;SDS011;28144;49.920;18.730;2022-12-20T09:14:17;46.10;;;20.73;;
42514;SDS011;28144;49.920;18.730;2022-12-20T09:16:43;45.78;;;20.83;;
42514;SDS011;28144;49.920;18.730;2022-12-20T09:19:09;49.40;;;21.67;;
42514;SDS011;28144;49.920;18.730;2022-12-20T09:21:37;52.80;;;22.20;;
42514;SDS011;28144;49.920;18.730;2022-12-20T09:24:02;50.53;;;23.30;;
42514;SDS011;28144;49.920;18.730;2022-12-20T09:26:28;51.60;;;23.33;;
42514;SDS011;28144;49.920;18.730;2022-12-20T09:28:54;53.22;;;23.52;;
42514;SDS011;28144;49.920;18.730;2022-12-20T09:31:22;54.42;;;22.35;;
42514;SDS011;28144;49.920;18.730;2022-12-20T09:33:49;49.87;;;24.07;;
42514;SDS011;28144;49.920;18.730;2022-12-20T09:36:18;43.40;;;19.97;;
42514;SDS011;28144;49.920;18.730;2022-12-20T09:38:45;54.93;;;23.07;;
42514;SDS011;28144;49.920;18.730;2022-12-20T09:41:44;48.65;;;21.83;;
42514;SDS011;28144;49.920;18.730;2022-12-20T09:46:58;52.10;;;22.57;;
42514;SDS011;28144;49.920;18.730;2022-12-20T09:49:39;49.97;;;20.47;;
42514;SDS011;28144;49.920;18.730;2022-12-20T09:54:54;52.93;;;22.47;;
42514;SDS011;28144;49.920;18.730;2022-12-20T10:00:14;52.77;;;22.73;;
42514;SDS011;28144;49.920;18.730;2022-12-20T10:02:44;53.17;;;24.17;;
42514;SDS011;28144;49.920;18.730;2022-12-20T10:05:12;50.55;;;24.40;;
42514;SDS011;28144;49.920;18.730;2022-12-20T10:07:48;49.43;;;22.00;;
42514;SDS011;28144;49.920;18.730;2022-12-20T10:13:36;57.53;;;23.03;;
42514;SDS011;28144;49.920;18.730;2022-12-20T10:24:29;51.93;;;22.83;;
42514;SDS011;28144;49.920;18.730;2022-12-20T10:29:51;44.78;;;21.05;;
42514;SDS011;28144;49.920;18.730;2022-12-20T10:32:18;47.20;;;20.70;;
42514;SDS011;28144;49.920;18.730;2022-12-20T10:34:50;40.33;;;19.43;;
42514;SDS011;28144;49.920;18.730;2022-12-20T10:37:19;42.03;;;19.83;;
42514;SDS011;28144;49.920;18.730;2022-12-20T10:39:49;41.07;;;19.00;;
42514;SDS011;28144;49.920;18.730;2022-12-20T10:42:58;40.20;;;18.77;;
42514;SDS011;28144;49.920;18.730;2022-12-20T10:45:15;41.33;;;18.87;;
42514;SDS011;28144;49.920;18.730;2022-12-20T10:47:57;45.53;;;21.27;;
42514;SDS011;28144;49.920;18.730;2022-12-20T10:50:24;46.77;;;20.97;;
42514;SDS011;28144;49.920;18.730;2022-12-20T10:53:01;43.13;;;22.07;;
42514;SDS011;28144;49.920;18.730;2022-12-20T10:55:41;54.47;;;22.80;;
42514;SDS011;28144;49.920;18.730;2022-12-20T10:58:40;50.40;;;21.93;;
42514;SDS011;28144;49.920;18.730;2022-12-20T11:01:04;44.07;;;19.63;;
42514;SDS011;28144;49.920;18.730;2022-12-20T11:03:57;52.27;;;23.87;;
42514;SDS011;28144;49.920;18.730;2022-12-20T11:06:28;50.50;;;21.57;;
42514;SDS011;28144;49.920;18.730;2022-12-20T11:11:56;55.80;;;23.77;;
42514;SDS011;28144;49.920;18.730;2022-12-20T11:14:25;55.83;;;23.87;;
42514;SDS011;28144;49.920;18.730;2022-12-20T11:16:53;51.67;;;23.30;;
42514;SDS011;28144;49.920;18.730;2022-12-20T11:19:29;50.97;;;23.13;;
42514;SDS011;28144;49.920;18.730;2022-12-20T11:32:54;47.13;;;23.17;;
42514;SDS011;28144;49.920;18.730;2022-12-20T11:35:21;47.17;;;23.10;;
42514;SDS011;28144;49.920;18.730;2022-12-20T11:38:10;48.53;;;21.23;;
42514;SDS011;28144;49.920;18.730;2022-12-20T11:43:15;53.28;;;24.05;;
42514;SDS011;28144;49.920;18.730;2022-12-20T11:48:38;41.67;;;19.07;;
42514;SDS011;28144;49.920;18.730;2022-12-20T11:51:23;46.13;;;20.17;;
42514;SDS011;28144;49.920;18.730;2022-12-20T11:54:01;42.13;;;19.27;;
42514;SDS011;28144;49.920;18.730;2022-12-20T11:56:36;43.60;;;18.73;;
42514;SDS011;28144;49.920;18.730;2022-12-20T11:59:05;35.03;;;18.03;;
42514;SDS011;28144;49.920;18.730;2022-12-20T12:01:42;41.97;;;19.70;;
42514;SDS011;28144;49.920;18.730;2022-12-20T12:04:32;38.53;;;18.47;;
42514;SDS011;28144;49.920;18.730;2022-12-20T12:07:10;44.97;;;19.27;;
42514;SDS011;28144;49.920;18.730;2022-12-20T12:09:57;45.70;;;20.27;;
42514;SDS011;28144;49.920;18.730;2022-12-20T12:12:26;42.70;;;19.87;;
42514;SDS011;28144;49.920;18.730;2022-12-20T12:17:41;40.90;;;18.77;;
42514;SDS011;28144;49.920;18.730;2022-12-20T12:20:22;38.50;;;19.00;;
42514;SDS011;28144;49.920;18.730;2022-12-20T12:23:05;40.20;;;19.20;;
42514;SDS011;28144;49.920;18.730;2022-12-20T12:25:36;44.67;;;20.13;;
42514;SDS011;28144;49.920;18.730;2022-12-20T12:28:02;49.57;;;19.23;;
42514;SDS011;28144;49.920;18.730;2022-12-20T12:30:29;39.77;;;18.37;;
42514;SDS011;28144;49.920;18.730;2022-12-20T12:33:02;45.73;;;21.30;;
42514;SDS011;28144;49.920;18.730;2022-12-20T12:41:56;40.10;;;19.60;;
42514;SDS011;28144;49.920;18.730;2022-12-20T12:47:21;45.60;;;20.53;;
42514;SDS011;28144;49.920;18.730;2022-12-20T12:49:50;49.20;;;20.00;;
42514;SDS011;28144;49.920;18.730;2022-12-20T12:52:50;39.83;;;19.70;;
42514;SDS011;28144;49.920;18.730;2022-12-20T12:58:12;38.37;;;19.93;;
42514;SDS011;28144;49.920;18.730;2022-12-20T13:03:14;37.72;;;18.40;;
42514;SDS011;28144;49.920;18.730;2022-12-20T13:05:41;36.40;;;18.40;;
42514;SDS011;28144;49.920;18.730;2022-12-20T13:08:16;43.17;;;20.63;;
42514;SDS011;28144;49.920;18.730;2022-12-20T13:13:12;43.13;;;19.50;;
42514;SDS011;28144;49.920;18.730;2022-12-20T13:15:45;42.53;;;19.23;;
42514;SDS011;28144;49.920;18.730;2022-12-20T13:20:37;35.70;;;17.50;;
42514;SDS011;28144;49.920;18.730;2022-12-20T13:25:43;40.70;;;19.17;;
42514;SDS011;28144;49.920;18.730;2022-12-20T13:31:33;43.20;;;20.00;;
42514;SDS011;28144;49.920;18.730;2022-12-20T13:33:49;44.37;;;20.57;;
42514;SDS011;28144;49.920;18.730;2022-12-20T13:43:51;44.83;;;21.33;;
42514;SDS011;28144;49.920;18.730;2022-12-20T13:46:21;48.23;;;20.57;;
42514;SDS011;28144;49.920;18.730;2022-12-20T13:48:55;46.83;;;21.77;;
42514;SDS011;28144;49.920;18.730;2022-12-20T13:51:23;48.67;;;22.27;;
42514;SDS011;28144;49.920;18.730;2022-12-20T13:53:54;49.87;;;22.10;;
42514;SDS011;28144;49.920;18.730;2022-12-20T13:59:06;50.90;;;23.93;;
42514;SDS011;28144;49.920;18.730;2022-12-20T14:01:46;51.80;;;23.33;;
42514;SDS011;28144;49.920;18.730;2022-12-20T14:04:13;48.40;;;22.90;;
42514;SDS011;28144;49.920;18.730;2022-12-20T14:06:39;57.73;;;23.20;;
42514;SDS011;28144;49.920;18.730;2022-12-20T14:09:24;52.80;;;23.80;;
42514;SDS011;28144;49.920;18.730;2022-12-20T14:12:05;51.53;;;23.37;;
42514;SDS011;28144;49.920;18.730;2022-12-20T14:14:38;55.30;;;24.80;;
42514;SDS011;28144;49.920;18.730;2022-12-20T14:17:24;57.97;;;25.13;;
42514;SDS011;28144;49.920;18.730;2022-12-20T14:22:28;56.67;;;26.40;;
42514;SDS011;28144;49.920;18.730;2022-12-20T14:24:54;52.88;;;24.67;;
42514;SDS011;28144;49.920;18.730;2022-12-20T14:27:19;49.43;;;22.80;;
42514;SDS011;28144;49.920;18.730;2022-12-20T14:29:45;47.20;;;21.60;;
42514;SDS011;28144;49.920;18.730;2022-12-20T14:32:16;47.27;;;21.20;;
42514;SDS011;28144;49.920;18.730;2022-12-20T14:34:43;44.90;;;21.33;;
42514;SDS011;28144;49.920;18.730;2022-12-20T14:42:32;43.07;;;19.70;;
42514;SDS011;28144;49.920;18.730;2022-12-20T14:47:34;52.47;;;22.57;;
42514;SDS011;28144;49.920;18.730;2022-12-20T14:50:03;48.30;;;20.48;;
42514;SDS011;28144;49.920;18.730;2022-12-20T14:52:37;49.20;;;21.37;;
42514;SDS011;28144;49.920;18.730;2022-12-20T14:57:49;44.30;;;21.07;;
42514;SDS011;28144;49.920;18.730;2022-12-20T15:08:22;54.40;;;22.97;;
42514;SDS011;28144;49.920;18.730;2022-12-20T15:10:53;52.80;;;22.10;;
42514;SDS011;28144;49.920;18.730;2022-12-20T15:13:21;55.30;;;22.87;;
42514;SDS011;28144;49.920;18.730;2022-12-20T15:15:49;51.60;;;22.70;;
42514;SDS011;28144;49.920;18.730;2022-12-20T15:18:16;50.57;;;22.07;;
42514;SDS011;28144;49.920;18.730;2022-12-20T15:20:43;47.53;;;21.43;;
42514;SDS011;28144;49.920;18.730;2022-12-20T15:23:15;51.07;;;21.20;;
42514;SDS011;28144;49.920;18.730;2022-12-20T15:25:42;47.43;;;22.20;;
42514;SDS011;28144;49.920;18.730;2022-12-20T15:28:41;56.25;;;22.58;;
42514;SDS011;28144;49.920;18.730;2022-12-20T15:31:00;50.13;;;23.13;;
42514;SDS011;28144;49.920;18.730;2022-12-20T15:33:29;46.23;;;22.67;;
42514;SDS011;28144;49.920;18.730;2022-12-20T15:35:56;45.60;;;22.80;;
42514;SDS011;28144;49.920;18.730;2022-12-20T15:38:23;49.73;;;22.33;;
42514;SDS011;28144;49.920;18.730;2022-12-20T15:40:51;65.00;;;27.70;;
42514;SDS011;28144;49.920;18.730;2022-12-20T15:43:36;49.50;;;22.33;;
42514;SDS011;28144;49.920;18.730;2022-12-20T15:46:03;49.93;;;21.07;;
42514;SDS011;28144;49.920;18.730;2022-12-20T15:48:29;45.43;;;20.37;;
42514;SDS011;28144;49.920;18.730;2022-12-20T15:50:56;49.60;;;23.37;;
42514;SDS011;28144;49.920;18.730;2022-12-20T15:53:24;48.60;;;21.93;;
42514;SDS011;28144;49.920;18.730;2022-12-20T15:55:52;50.50;;;22.17;;
42514;SDS011;28144;49.920;18.730;2022-12-20T15:58:19;52.70;;;22.47;;
42514;SDS011;28144;49.920;18.730;2022-12-20T16:00:45;57.33;;;24.48;;
42514;SDS011;28144;49.920;18.730;2022-12-20T16:03:19;54.53;;;23.10;;
42514;SDS011;28144;49.920;18.730;2022-12-20T16:05:47;57.70;;;24.70;;
42514;SDS011;28144;49.920;18.730;2022-12-20T16:08:15;61.67;;;24.67;;
42514;SDS011;28144;49.920;18.730;2022-12-20T16:10:45;62.13;;;26.50;;
42514;SDS011;28144;49.920;18.730;2022-12-20T16:13:15;64.23;;;24.97;;
42514;SDS011;28144;49.920;18.730;2022-12-20T16:15:45;59.00;;;25.83;;
42514;SDS011;28144;49.920;18.730;2022-12-20T16:18:11;68.95;;;27.92;;
42514;SDS011;28144;49.920;18.730;2022-12-20T16:20:37;66.77;;;29.27;;